sensor_id;sensor_type;location;lat;lon;timestamp;P1;durP1;ratioP1;P2;durP2;ratioP2
25249;SDS011;13201;51.148;13.738;2023-02-15T00:01:49;29.25;;;12.43;;
25249;SDS011;13201;51.148;13.738;2023-02-15T00:04:17;28.83;;;11.68;;
25249;SDS011;13201;51.148;13.738;2023-02-15T00:06:44;28.83;;;11.70;;
25249;SDS011;13201;51.148;13.738;2023-02-15T00:09:10;27.70;;;11.00;;
25249;SDS011;13201;51.148;13.738;2023-02-15T00:11:36;30.85;;;11.82;;
25249;SDS011;13201;51.148;13.738;2023-02-15T00:14:06;26.45;;;10.05;;
25249;SDS011;13201;51.148;13.738;2023-02-15T00:16:46;24.20;;;9.95;;
25249;SDS011;13201;51.148;13.738;2023-02-15T00:19:14;27.27;;;11.57;;
25249;SDS011;13201;51.148;13.738;2023-02-15T00:21:41;31.88;;;12.05;;
25249;SDS011;13201;51.148;13.738;2023-02-15T00:24:08;30.52;;;10.70;;
25249;SDS011;13201;51.148;13.738;2023-02-15T00:26:34;26.25;;;11.02;;
25249;SDS011;13201;51.148;13.738;2023-02-15T00:29:02;29.85;;;11.05;;
25249;SDS011;13201;51.148;13.738;2023-02-15T00:31:30;27.48;;;10.20;;
25249;SDS011;13201;51.148;13.738;2023-02-15T00:34:04;25.02;;;11.23;;
25249;SDS011;13201;51.148;13.738;2023-02-15T00:36:31;30.75;;;11.60;;
25249;SDS011;13201;51.148;13.738;2023-02-15T00:38:57;24.30;;;10.20;;
25249;SDS011;13201;51.148;13.738;2023-02-15T00:41:23;26.25;;;10.45;;
25249;SDS011;13201;51.148;13.738;2023-02-15T00:43:49;29.88;;;11.15;;
25249;SDS011;13201;51.148;13.738;2023-02-15T00:46:14;28.08;;;11.05;;
25249;SDS011;13201;51.148;13.738;2023-02-15T00:48:40;28.27;;;11.20;;
25249;SDS011;13201;51.148;13.738;2023-02-15T00:51:06;26.95;;;10.77;;
25249;SDS011;13201;51.148;13.738;2023-02-15T00:53:31;28.90;;;10.95;;
25249;SDS011;13201;51.148;13.738;2023-02-15T00:55:57;31.83;;;10.75;;
25249;SDS011;13201;51.148;13.738;2023-02-15T00:58:23;26.00;;;10.40;;
25249;SDS011;13201;51.148;13.738;2023-02-15T01:00:49;30.55;;;11.27;;
25249;SDS011;13201;51.148;13.738;2023-02-15T01:03:16;26.70;;;10.70;;
25249;SDS011;13201;51.148;13.738;2023-02-15T01:31:05;34.67;;;11.23;;
25249;SDS011;13201;51.148;13.738;2023-02-15T01:33:38;32.75;;;12.70;;
25249;SDS011;13201;51.148;13.738;2023-02-15T01:36:04;39.97;;;12.93;;
25249;SDS011;13201;51.148;13.738;2023-02-15T01:38:30;24.10;;;9.10;;
25249;SDS011;13201;51.148;13.738;2023-02-15T01:40:56;27.53;;;11.00;;
25249;SDS011;13201;51.148;13.738;2023-02-15T01:43:42;38.50;;;13.87;;
25249;SDS011;13201;51.148;13.738;2023-02-15T01:46:13;33.78;;;11.90;;
25249;SDS011;13201;51.148;13.738;2023-02-15T01:48:43;32.33;;;11.95;;
25249;SDS011;13201;51.148;13.738;2023-02-15T01:51:12;30.25;;;11.73;;
25249;SDS011;13201;51.148;13.738;2023-02-15T01:56:16;31.77;;;11.35;;
25249;SDS011;13201;51.148;13.738;2023-02-15T01:58:46;31.00;;;11.13;;
25249;SDS011;13201;51.148;13.738;2023-02-15T02:01:12;19.63;;;8.50;;
25249;SDS011;13201;51.148;13.738;2023-02-15T02:06:38;30.65;;;12.00;;
25249;SDS011;13201;51.148;13.738;2023-02-15T02:09:04;32.90;;;11.63;;
25249;SDS011;13201;51.148;13.738;2023-02-15T02:11:30;33.40;;;11.47;;
25249;SDS011;13201;51.148;13.738;2023-02-15T02:13:57;33.70;;;11.95;;
25249;SDS011;13201;51.148;13.738;2023-02-15T02:30:49;24.70;;;10.52;;
25249;SDS011;13201;51.148;13.738;2023-02-15T02:33:57;27.23;;;11.27;;
25249;SDS011;13201;51.148;13.738;2023-02-15T02:41:57;27.27;;;10.90;;
25249;SDS011;13201;51.148;13.738;2023-02-15T02:47:10;27.92;;;10.35;;
25249;SDS011;13201;51.148;13.738;2023-02-15T02:49:38;26.50;;;10.98;;
25249;SDS011;13201;51.148;13.738;2023-02-15T02:55:07;30.23;;;11.35;;
25249;SDS011;13201;51.148;13.738;2023-02-15T03:00:31;32.42;;;11.00;;
25249;SDS011;13201;51.148;13.738;2023-02-15T03:03:27;29.73;;;9.88;;
25249;SDS011;13201;51.148;13.738;2023-02-15T03:06:14;28.75;;;11.23;;
25249;SDS011;13201;51.148;13.738;2023-02-15T03:08:55;27.83;;;10.15;;
25249;SDS011;13201;51.148;13.738;2023-02-15T03:11:26;28.70;;;10.55;;
25249;SDS011;13201;51.148;13.738;2023-02-15T03:13:52;26.60;;;10.50;;
25249;SDS011;13201;51.148;13.738;2023-02-15T03:16:18;25.67;;;10.13;;
25249;SDS011;13201;51.148;13.738;2023-02-15T03:18:55;28.45;;;10.43;;
25249;SDS011;13201;51.148;13.738;2023-02-15T03:21:38;28.15;;;10.25;;
25249;SDS011;13201;51.148;13.738;2023-02-15T03:24:42;28.60;;;11.23;;
25249;SDS011;13201;51.148;13.738;2023-02-15T03:27:14;27.75;;;11.15;;
25249;SDS011;13201;51.148;13.738;2023-02-15T03:29:47;28.63;;;10.27;;
25249;SDS011;13201;51.148;13.738;2023-02-15T03:32:17;22.65;;;9.40;;
25249;SDS011;13201;51.148;13.738;2023-02-15T03:34:43;24.83;;;10.30;;
25249;SDS011;13201;51.148;13.738;2023-02-15T03:37:29;24.77;;;9.93;;
25249;SDS011;13201;51.148;13.738;2023-02-15T03:40:18;31.83;;;11.07;;
25249;SDS011;13201;51.148;13.738;2023-02-15T03:43:30;33.38;;;10.80;;
25249;SDS011;13201;51.148;13.738;2023-02-15T03:46:15;30.83;;;9.98;;
25249;SDS011;13201;51.148;13.738;2023-02-15T03:48:45;23.85;;;10.38;;
25249;SDS011;13201;51.148;13.738;2023-02-15T03:51:34;24.48;;;9.38;;
25249;SDS011;13201;51.148;13.738;2023-02-15T03:57:00;27.63;;;9.80;;
25249;SDS011;13201;51.148;13.738;2023-02-15T03:59:45;24.35;;;9.43;;
25249;SDS011;13201;51.148;13.738;2023-02-15T04:02:30;25.65;;;9.98;;
25249;SDS011;13201;51.148;13.738;2023-02-15T04:05:05;24.88;;;8.98;;
25249;SDS011;13201;51.148;13.738;2023-02-15T04:07:30;25.13;;;9.30;;
25249;SDS011;13201;51.148;13.738;2023-02-15T04:09:56;26.33;;;9.68;;
25249;SDS011;13201;51.148;13.738;2023-02-15T04:12:40;26.13;;;9.55;;
25249;SDS011;13201;51.148;13.738;2023-02-15T04:15:06;24.08;;;9.80;;
25249;SDS011;13201;51.148;13.738;2023-02-15T04:17:51;17.55;;;7.18;;
25249;SDS011;13201;51.148;13.738;2023-02-15T04:20:17;30.33;;;9.73;;
25249;SDS011;13201;51.148;13.738;2023-02-15T04:23:01;25.35;;;9.65;;
25249;SDS011;13201;51.148;13.738;2023-02-15T04:25:50;26.60;;;9.48;;
25249;SDS011;13201;51.148;13.738;2023-02-15T04:28:15;24.33;;;8.40;;
25249;SDS011;13201;51.148;13.738;2023-02-15T04:30:41;25.42;;;9.43;;
25249;SDS011;13201;51.148;13.738;2023-02-15T04:33:06;28.70;;;10.60;;
25249;SDS011;13201;51.148;13.738;2023-02-15T04:35:32;24.77;;;9.25;;
25249;SDS011;13201;51.148;13.738;2023-02-15T04:37:58;27.30;;;9.63;;
25249;SDS011;13201;51.148;13.738;2023-02-15T04:40:24;28.10;;;10.23;;
25249;SDS011;13201;51.148;13.738;2023-02-15T04:42:50;26.35;;;9.32;;
25249;SDS011;13201;51.148;13.738;2023-02-15T04:45:16;24.83;;;8.90;;
25249;SDS011;13201;51.148;13.738;2023-02-15T04:47:42;25.03;;;9.47;;
25249;SDS011;13201;51.148;13.738;2023-02-15T04:50:08;28.03;;;9.77;;
25249;SDS011;13201;51.148;13.738;2023-02-15T04:52:34;24.63;;;8.80;;
25249;SDS011;13201;51.148;13.738;2023-02-15T04:54:59;15.65;;;6.88;;
25249;SDS011;13201;51.148;13.738;2023-02-15T04:57:25;25.87;;;9.80;;
25249;SDS011;13201;51.148;13.738;2023-02-15T04:59:50;18.90;;;8.52;;
25249;SDS011;13201;51.148;13.738;2023-02-15T05:02:16;21.98;;;9.15;;
25249;SDS011;13201;51.148;13.738;2023-02-15T05:04:42;21.53;;;8.87;;
25249;SDS011;13201;51.148;13.738;2023-02-15T05:07:07;20.63;;;9.53;;
25249;SDS011;13201;51.148;13.738;2023-02-15T05:09:33;22.23;;;8.30;;
25249;SDS011;13201;51.148;13.738;2023-02-15T05:11:59;24.95;;;8.57;;
25249;SDS011;13201;51.148;13.738;2023-02-15T05:14:25;21.65;;;8.52;;
25249;SDS011;13201;51.148;13.738;2023-02-15T05:16:50;23.48;;;8.65;;
25249;SDS011;13201;51.148;13.738;2023-02-15T05:19:16;25.40;;;8.63;;
25249;SDS011;13201;51.148;13.738;2023-02-15T05:21:42;20.13;;;8.57;;
25249;SDS011;13201;51.148;13.738;2023-02-15T05:24:07;13.23;;;6.15;;
25249;SDS011;13201;51.148;13.738;2023-02-15T05:26:51;22.25;;;8.05;;
25249;SDS011;13201;51.148;13.738;2023-02-15T05:29:36;21.08;;;8.48;;
25249;SDS011;13201;51.148;13.738;2023-02-15T05:32:01;22.77;;;9.07;;
25249;SDS011;13201;51.148;13.738;2023-02-15T05:34:27;22.03;;;8.27;;
25249;SDS011;13201;51.148;13.738;2023-02-15T05:36:53;27.73;;;9.10;;
25249;SDS011;13201;51.148;13.738;2023-02-15T05:39:18;19.40;;;8.30;;
25249;SDS011;13201;51.148;13.738;2023-02-15T05:41:44;19.53;;;7.83;;
25249;SDS011;13201;51.148;13.738;2023-02-15T05:44:09;23.90;;;8.90;;
25249;SDS011;13201;51.148;13.738;2023-02-15T05:46:35;27.47;;;8.47;;
25249;SDS011;13201;51.148;13.738;2023-02-15T05:49:01;24.35;;;8.02;;
25249;SDS011;13201;51.148;13.738;2023-02-15T05:51:26;15.13;;;5.70;;
25249;SDS011;13201;51.148;13.738;2023-02-15T05:53:52;25.17;;;9.17;;
25249;SDS011;13201;51.148;13.738;2023-02-15T05:56:18;20.10;;;8.37;;
25249;SDS011;13201;51.148;13.738;2023-02-15T05:58:43;21.33;;;7.80;;
25249;SDS011;13201;51.148;13.738;2023-02-15T06:01:16;20.80;;;7.53;;
25249;SDS011;13201;51.148;13.738;2023-02-15T06:03:43;19.33;;;7.55;;
25249;SDS011;13201;51.148;13.738;2023-02-15T06:06:10;21.33;;;7.82;;
25249;SDS011;13201;51.148;13.738;2023-02-15T06:08:36;21.40;;;8.63;;
25249;SDS011;13201;51.148;13.738;2023-02-15T06:11:02;19.67;;;7.63;;
25249;SDS011;13201;51.148;13.738;2023-02-15T06:13:29;20.63;;;7.20;;
25249;SDS011;13201;51.148;13.738;2023-02-15T06:15:54;20.33;;;7.93;;
25249;SDS011;13201;51.148;13.738;2023-02-15T06:18:20;19.65;;;7.78;;
25249;SDS011;13201;51.148;13.738;2023-02-15T06:20:46;14.73;;;5.70;;
25249;SDS011;13201;51.148;13.738;2023-02-15T06:23:12;19.10;;;7.60;;
25249;SDS011;13201;51.148;13.738;2023-02-15T06:25:38;22.30;;;8.33;;
25249;SDS011;13201;51.148;13.738;2023-02-15T06:28:04;24.27;;;8.77;;
25249;SDS011;13201;51.148;13.738;2023-02-15T06:30:30;18.83;;;8.33;;
25249;SDS011;13201;51.148;13.738;2023-02-15T06:32:56;19.43;;;8.00;;
25249;SDS011;13201;51.148;13.738;2023-02-15T06:35:22;19.63;;;7.57;;
25249;SDS011;13201;51.148;13.738;2023-02-15T06:37:47;22.40;;;6.80;;
25249;SDS011;13201;51.148;13.738;2023-02-15T06:40:14;18.17;;;6.80;;
25249;SDS011;13201;51.148;13.738;2023-02-15T06:42:43;19.10;;;7.10;;
25249;SDS011;13201;51.148;13.738;2023-02-15T06:45:09;15.13;;;6.82;;
25249;SDS011;13201;51.148;13.738;2023-02-15T06:47:36;19.45;;;7.47;;
25249;SDS011;13201;51.148;13.738;2023-02-15T06:50:02;18.73;;;7.17;;
25249;SDS011;13201;51.148;13.738;2023-02-15T06:52:29;18.88;;;7.07;;
25249;SDS011;13201;51.148;13.738;2023-02-15T06:54:54;18.75;;;7.55;;
25249;SDS011;13201;51.148;13.738;2023-02-15T06:57:20;22.45;;;7.45;;
25249;SDS011;13201;51.148;13.738;2023-02-15T06:59:46;17.73;;;6.88;;
25249;SDS011;13201;51.148;13.738;2023-02-15T07:02:12;19.90;;;7.47;;
25249;SDS011;13201;51.148;13.738;2023-02-15T07:04:37;17.13;;;7.03;;
25249;SDS011;13201;51.148;13.738;2023-02-15T07:07:03;17.73;;;7.30;;
25249;SDS011;13201;51.148;13.738;2023-02-15T07:09:29;18.70;;;7.07;;
25249;SDS011;13201;51.148;13.738;2023-02-15T07:11:55;17.45;;;6.95;;
25249;SDS011;13201;51.148;13.738;2023-02-15T07:14:39;16.65;;;7.05;;
25249;SDS011;13201;51.148;13.738;2023-02-15T07:17:05;18.43;;;7.00;;
25249;SDS011;13201;51.148;13.738;2023-02-15T07:19:31;18.07;;;7.50;;
25249;SDS011;13201;51.148;13.738;2023-02-15T07:21:57;18.73;;;7.03;;
25249;SDS011;13201;51.148;13.738;2023-02-15T07:24:23;14.85;;;6.57;;
25249;SDS011;13201;51.148;13.738;2023-02-15T07:26:48;11.32;;;4.60;;
25249;SDS011;13201;51.148;13.738;2023-02-15T07:29:14;15.32;;;6.47;;
25249;SDS011;13201;51.148;13.738;2023-02-15T07:31:40;16.88;;;6.75;;
25249;SDS011;13201;51.148;13.738;2023-02-15T07:34:08;17.38;;;6.53;;
25249;SDS011;13201;51.148;13.738;2023-02-15T07:36:33;17.10;;;6.82;;
25249;SDS011;13201;51.148;13.738;2023-02-15T07:38:59;19.38;;;6.63;;
25249;SDS011;13201;51.148;13.738;2023-02-15T07:41:25;16.50;;;6.35;;
25249;SDS011;13201;51.148;13.738;2023-02-15T07:43:50;15.32;;;6.47;;
25249;SDS011;13201;51.148;13.738;2023-02-15T07:46:16;16.15;;;6.32;;
25249;SDS011;13201;51.148;13.738;2023-02-15T07:48:43;17.33;;;6.03;;
25249;SDS011;13201;51.148;13.738;2023-02-15T07:51:09;14.02;;;5.88;;
25249;SDS011;13201;51.148;13.738;2023-02-15T07:53:36;14.23;;;6.35;;
25249;SDS011;13201;51.148;13.738;2023-02-15T07:56:03;16.48;;;5.97;;
25249;SDS011;13201;51.148;13.738;2023-02-15T07:58:34;14.02;;;5.75;;
25249;SDS011;13201;51.148;13.738;2023-02-15T08:01:16;14.30;;;6.40;;
25249;SDS011;13201;51.148;13.738;2023-02-15T08:06:22;13.60;;;5.40;;
25249;SDS011;13201;51.148;13.738;2023-02-15T08:08:50;15.32;;;6.25;;
25249;SDS011;13201;51.148;13.738;2023-02-15T08:16:51;12.75;;;5.75;;
25249;SDS011;13201;51.148;13.738;2023-02-15T08:19:21;14.40;;;5.38;;
25249;SDS011;13201;51.148;13.738;2023-02-15T08:24:19;14.45;;;6.43;;
25249;SDS011;13201;51.148;13.738;2023-02-15T08:26:46;16.05;;;5.57;;
25249;SDS011;13201;51.148;13.738;2023-02-15T08:29:16;19.13;;;7.75;;
25249;SDS011;13201;51.148;13.738;2023-02-15T08:31:50;17.13;;;6.32;;
25249;SDS011;13201;51.148;13.738;2023-02-15T08:34:18;13.70;;;5.95;;
25249;SDS011;13201;51.148;13.738;2023-02-15T08:36:44;15.05;;;6.43;;
25249;SDS011;13201;51.148;13.738;2023-02-15T08:39:11;14.32;;;5.93;;
25249;SDS011;13201;51.148;13.738;2023-02-15T08:41:38;13.20;;;5.80;;
25249;SDS011;13201;51.148;13.738;2023-02-15T08:44:06;17.25;;;6.28;;
25249;SDS011;13201;51.148;13.738;2023-02-15T08:46:37;17.15;;;6.70;;
25249;SDS011;13201;51.148;13.738;2023-02-15T08:49:05;13.90;;;5.93;;
25249;SDS011;13201;51.148;13.738;2023-02-15T08:51:32;12.00;;;5.65;;
25249;SDS011;13201;51.148;13.738;2023-02-15T08:54:01;12.98;;;5.88;;
25249;SDS011;13201;51.148;13.738;2023-02-15T08:56:31;16.27;;;6.03;;
25249;SDS011;13201;51.148;13.738;2023-02-15T08:58:58;15.18;;;6.07;;
25249;SDS011;13201;51.148;13.738;2023-02-15T09:01:28;14.88;;;5.88;;
25249;SDS011;13201;51.148;13.738;2023-02-15T09:03:56;12.93;;;5.10;;
25249;SDS011;13201;51.148;13.738;2023-02-15T09:06:23;13.70;;;5.72;;
25249;SDS011;13201;51.148;13.738;2023-02-15T09:08:49;11.90;;;4.82;;
25249;SDS011;13201;51.148;13.738;2023-02-15T09:11:22;14.68;;;5.97;;
25249;SDS011;13201;51.148;13.738;2023-02-15T09:13:51;11.93;;;5.18;;
25249;SDS011;13201;51.148;13.738;2023-02-15T09:16:21;14.27;;;5.43;;
25249;SDS011;13201;51.148;13.738;2023-02-15T09:18:48;11.70;;;5.25;;
25249;SDS011;13201;51.148;13.738;2023-02-15T09:21:15;15.40;;;5.50;;
25249;SDS011;13201;51.148;13.738;2023-02-15T09:23:42;10.23;;;5.20;;
25249;SDS011;13201;51.148;13.738;2023-02-15T09:26:10;11.02;;;4.93;;
25249;SDS011;13201;51.148;13.738;2023-02-15T09:28:38;13.45;;;6.07;;
25249;SDS011;13201;51.148;13.738;2023-02-15T09:31:08;12.23;;;5.97;;
25249;SDS011;13201;51.148;13.738;2023-02-15T09:33:37;19.17;;;6.35;;
25249;SDS011;13201;51.148;13.738;2023-02-15T09:36:05;12.55;;;5.35;;
25249;SDS011;13201;51.148;13.738;2023-02-15T09:38:38;12.40;;;5.47;;
25249;SDS011;13201;51.148;13.738;2023-02-15T09:43:42;15.25;;;5.38;;
25249;SDS011;13201;51.148;13.738;2023-02-15T09:46:44;12.63;;;5.63;;
25249;SDS011;13201;51.148;13.738;2023-02-15T09:49:39;14.52;;;5.93;;
25249;SDS011;13201;51.148;13.738;2023-02-15T09:52:25;13.82;;;6.13;;
25249;SDS011;13201;51.148;13.738;2023-02-15T10:03:42;19.75;;;6.18;;
25249;SDS011;13201;51.148;13.738;2023-02-15T10:09:16;18.00;;;6.27;;
25249;SDS011;13201;51.148;13.738;2023-02-15T10:12:03;16.52;;;5.72;;
25249;SDS011;13201;51.148;13.738;2023-02-15T10:17:51;12.57;;;5.82;;
25249;SDS011;13201;51.148;13.738;2023-02-15T10:20:43;14.82;;;5.97;;
25249;SDS011;13201;51.148;13.738;2023-02-15T10:34:19;14.25;;;6.35;;
25249;SDS011;13201;51.148;13.738;2023-02-15T10:48:31;14.90;;;6.65;;
25249;SDS011;13201;51.148;13.738;2023-02-15T10:51:14;15.38;;;6.90;;
25249;SDS011;13201;51.148;13.738;2023-02-15T10:59:10;18.80;;;8.00;;
25249;SDS011;13201;51.148;13.738;2023-02-15T11:07:26;21.52;;;8.90;;
25249;SDS011;13201;51.148;13.738;2023-02-15T11:12:53;18.05;;;8.18;;
25249;SDS011;13201;51.148;13.738;2023-02-15T11:18:05;20.05;;;8.48;;
25249;SDS011;13201;51.148;13.738;2023-02-15T11:23:35;29.25;;;12.18;;
25249;SDS011;13201;51.148;13.738;2023-02-15T11:26:08;32.97;;;15.57;;
25249;SDS011;13201;51.148;13.738;2023-02-15T11:28:49;25.23;;;10.38;;
25249;SDS011;13201;51.148;13.738;2023-02-15T11:31:21;31.63;;;12.93;;
25249;SDS011;13201;51.148;13.738;2023-02-15T11:33:52;23.48;;;10.23;;
25249;SDS011;13201;51.148;13.738;2023-02-15T11:36:24;22.10;;;9.55;;
25249;SDS011;13201;51.148;13.738;2023-02-15T11:39:02;19.48;;;7.85;;
25249;SDS011;13201;51.148;13.738;2023-02-15T11:41:37;31.13;;;13.27;;
25249;SDS011;13201;51.148;13.738;2023-02-15T11:44:06;37.75;;;17.77;;
25249;SDS011;13201;51.148;13.738;2023-02-15T11:46:40;30.95;;;13.88;;
25249;SDS011;13201;51.148;13.738;2023-02-15T11:49:39;17.33;;;8.77;;
25249;SDS011;13201;51.148;13.738;2023-02-15T11:52:05;20.98;;;9.85;;
25249;SDS011;13201;51.148;13.738;2023-02-15T11:54:36;17.25;;;7.80;;
25249;SDS011;13201;51.148;13.738;2023-02-15T11:57:11;16.85;;;7.88;;
25249;SDS011;13201;51.148;13.738;2023-02-15T11:59:37;14.85;;;6.65;;
25249;SDS011;13201;51.148;13.738;2023-02-15T12:02:18;14.20;;;7.18;;
25249;SDS011;13201;51.148;13.738;2023-02-15T12:04:55;16.33;;;7.65;;
25249;SDS011;13201;51.148;13.738;2023-02-15T12:10:04;18.30;;;7.65;;
25249;SDS011;13201;51.148;13.738;2023-02-15T12:12:33;16.95;;;7.57;;
25249;SDS011;13201;51.148;13.738;2023-02-15T12:15:04;15.93;;;7.30;;
25249;SDS011;13201;51.148;13.738;2023-02-15T12:17:33;35.60;;;13.70;;
25249;SDS011;13201;51.148;13.738;2023-02-15T12:20:24;20.33;;;9.23;;
25249;SDS011;13201;51.148;13.738;2023-02-15T12:22:58;16.17;;;7.07;;
25249;SDS011;13201;51.148;13.738;2023-02-15T12:27:55;19.38;;;8.82;;
25249;SDS011;13201;51.148;13.738;2023-02-15T12:30:42;17.60;;;7.97;;
25249;SDS011;13201;51.148;13.738;2023-02-15T12:35:45;17.90;;;8.85;;
25249;SDS011;13201;51.148;13.738;2023-02-15T12:40:40;19.65;;;9.27;;
25249;SDS011;13201;51.148;13.738;2023-02-15T12:43:24;17.63;;;7.65;;
25249;SDS011;13201;51.148;13.738;2023-02-15T12:48:46;15.25;;;7.97;;
25249;SDS011;13201;51.148;13.738;2023-02-15T12:51:14;13.43;;;6.87;;
25249;SDS011;13201;51.148;13.738;2023-02-15T12:53:40;13.35;;;7.20;;
25249;SDS011;13201;51.148;13.738;2023-02-15T12:56:07;13.20;;;6.35;;
25249;SDS011;13201;51.148;13.738;2023-02-15T12:58:38;14.50;;;7.28;;
25249;SDS011;13201;51.148;13.738;2023-02-15T13:01:18;14.48;;;6.95;;
25249;SDS011;13201;51.148;13.738;2023-02-15T13:04:03;19.73;;;7.82;;
25249;SDS011;13201;51.148;13.738;2023-02-15T13:06:32;14.52;;;7.03;;
25249;SDS011;13201;51.148;13.738;2023-02-15T13:09:24;14.40;;;6.80;;
25249;SDS011;13201;51.148;13.738;2023-02-15T13:11:57;17.08;;;6.78;;
25249;SDS011;13201;51.148;13.738;2023-02-15T13:14:56;16.52;;;7.22;;
25249;SDS011;13201;51.148;13.738;2023-02-15T13:17:28;15.05;;;7.38;;
25249;SDS011;13201;51.148;13.738;2023-02-15T13:23:04;14.80;;;8.25;;
25249;SDS011;13201;51.148;13.738;2023-02-15T13:25:41;15.85;;;7.18;;
25249;SDS011;13201;51.148;13.738;2023-02-15T13:28:15;16.85;;;7.85;;
25249;SDS011;13201;51.148;13.738;2023-02-15T13:30:45;16.75;;;7.50;;
25249;SDS011;13201;51.148;13.738;2023-02-15T13:36:00;18.85;;;7.70;;
25249;SDS011;13201;51.148;13.738;2023-02-15T13:38:45;15.90;;;7.50;;
25249;SDS011;13201;51.148;13.738;2023-02-15T13:41:30;15.25;;;7.80;;
25249;SDS011;13201;51.148;13.738;2023-02-15T13:52:30;17.58;;;8.00;;
25249;SDS011;13201;51.148;13.738;2023-02-15T14:00:40;16.25;;;7.63;;
25249;SDS011;13201;51.148;13.738;2023-02-15T14:03:28;18.75;;;9.23;;
25249;SDS011;13201;51.148;13.738;2023-02-15T14:08:49;14.73;;;7.05;;
25249;SDS011;13201;51.148;13.738;2023-02-15T14:11:32;17.30;;;7.70;;
25249;SDS011;13201;51.148;13.738;2023-02-15T14:17:00;16.67;;;8.07;;
25249;SDS011;13201;51.148;13.738;2023-02-15T14:19:39;17.27;;;8.18;;
25249;SDS011;13201;51.148;13.738;2023-02-15T14:22:18;18.45;;;8.35;;
25249;SDS011;13201;51.148;13.738;2023-02-15T14:30:29;18.58;;;8.63;;
25249;SDS011;13201;51.148;13.738;2023-02-15T14:33:00;20.17;;;9.05;;
25249;SDS011;13201;51.148;13.738;2023-02-15T14:35:51;18.38;;;9.00;;
25249;SDS011;13201;51.148;13.738;2023-02-15T14:40:56;21.52;;;9.52;;
25249;SDS011;13201;51.148;13.738;2023-02-15T14:43:35;23.70;;;10.02;;
25249;SDS011;13201;51.148;13.738;2023-02-15T14:48:51;20.45;;;9.45;;
25249;SDS011;13201;51.148;13.738;2023-02-15T14:54:08;17.20;;;8.73;;
25249;SDS011;13201;51.148;13.738;2023-02-15T14:56:35;19.27;;;9.68;;
25249;SDS011;13201;51.148;13.738;2023-02-15T15:00:14;19.30;;;9.70;;
25249;SDS011;13201;51.148;13.738;2023-02-15T15:07:17;22.05;;;10.25;;
25249;SDS011;13201;51.148;13.738;2023-02-15T15:09:58;21.70;;;9.57;;
25249;SDS011;13201;51.148;13.738;2023-02-15T15:14:50;21.30;;;10.75;;
25249;SDS011;13201;51.148;13.738;2023-02-15T15:20:11;20.10;;;9.43;;
25249;SDS011;13201;51.148;13.738;2023-02-15T15:26:26;23.63;;;10.60;;
25249;SDS011;13201;51.148;13.738;2023-02-15T15:31:55;22.88;;;11.57;;
25249;SDS011;13201;51.148;13.738;2023-02-15T15:50:12;27.27;;;12.23;;
25249;SDS011;13201;51.148;13.738;2023-02-15T15:52:41;23.95;;;11.10;;
25249;SDS011;13201;51.148;13.738;2023-02-15T15:55:17;25.85;;;11.93;;
25249;SDS011;13201;51.148;13.738;2023-02-15T15:57:47;25.48;;;11.63;;
25249;SDS011;13201;51.148;13.738;2023-02-15T16:02:54;24.52;;;11.63;;
25249;SDS011;13201;51.148;13.738;2023-02-15T16:05:22;26.15;;;12.23;;
25249;SDS011;13201;51.148;13.738;2023-02-15T16:07:48;29.20;;;12.73;;
25249;SDS011;13201;51.148;13.738;2023-02-15T16:10:35;29.13;;;13.13;;
25249;SDS011;13201;51.148;13.738;2023-02-15T16:13:02;23.90;;;12.20;;
25249;SDS011;13201;51.148;13.738;2023-02-15T16:18:10;26.10;;;12.73;;
25249;SDS011;13201;51.148;13.738;2023-02-15T16:20:40;25.42;;;12.73;;
25249;SDS011;13201;51.148;13.738;2023-02-15T16:23:26;28.33;;;12.90;;
25249;SDS011;13201;51.148;13.738;2023-02-15T16:28:50;27.63;;;12.15;;
25249;SDS011;13201;51.148;13.738;2023-02-15T16:31:18;28.80;;;13.10;;
25249;SDS011;13201;51.148;13.738;2023-02-15T16:33:44;29.30;;;13.37;;
25249;SDS011;13201;51.148;13.738;2023-02-15T16:36:24;26.27;;;11.75;;
25249;SDS011;13201;51.148;13.738;2023-02-15T16:41:16;30.33;;;11.73;;
25249;SDS011;13201;51.148;13.738;2023-02-15T16:43:45;23.58;;;11.27;;
25249;SDS011;13201;51.148;13.738;2023-02-15T16:48:52;25.00;;;10.80;;
25249;SDS011;13201;51.148;13.738;2023-02-15T16:51:21;23.17;;;11.15;;
25249;SDS011;13201;51.148;13.738;2023-02-15T16:53:55;24.15;;;11.55;;
25249;SDS011;13201;51.148;13.738;2023-02-15T16:56:26;29.05;;;12.55;;
25249;SDS011;13201;51.148;13.738;2023-02-15T16:58:55;27.02;;;12.57;;
25249;SDS011;13201;51.148;13.738;2023-02-15T17:01:23;28.70;;;12.32;;
25249;SDS011;13201;51.148;13.738;2023-02-15T17:04:09;26.50;;;11.18;;
25249;SDS011;13201;51.148;13.738;2023-02-15T17:06:38;21.92;;;10.68;;
25249;SDS011;13201;51.148;13.738;2023-02-15T17:09:05;26.33;;;10.68;;
25249;SDS011;13201;51.148;13.738;2023-02-15T17:11:40;21.23;;;10.80;;
25249;SDS011;13201;51.148;13.738;2023-02-15T17:16:42;24.80;;;10.40;;
25249;SDS011;13201;51.148;13.738;2023-02-15T17:19:24;26.83;;;10.98;;
25249;SDS011;13201;51.148;13.738;2023-02-15T17:21:54;23.40;;;10.60;;
25249;SDS011;13201;51.148;13.738;2023-02-15T17:27:17;45.50;;;19.48;;
25249;SDS011;13201;51.148;13.738;2023-02-15T17:29:48;24.40;;;10.40;;
25249;SDS011;13201;51.148;13.738;2023-02-15T17:32:20;22.80;;;10.45;;
25249;SDS011;13201;51.148;13.738;2023-02-15T17:35:16;27.10;;;11.10;;
25249;SDS011;13201;51.148;13.738;2023-02-15T17:37:49;27.15;;;11.52;;
25249;SDS011;13201;51.148;13.738;2023-02-15T17:40:25;23.20;;;10.23;;
25249;SDS011;13201;51.148;13.738;2023-02-15T17:42:55;29.30;;;10.20;;
25249;SDS011;13201;51.148;13.738;2023-02-15T17:45:21;27.25;;;11.07;;
25249;SDS011;13201;51.148;13.738;2023-02-15T17:48:01;25.80;;;11.77;;
25249;SDS011;13201;51.148;13.738;2023-02-15T17:50:30;26.42;;;11.18;;
25249;SDS011;13201;51.148;13.738;2023-02-15T17:52:57;25.23;;;10.10;;
25249;SDS011;13201;51.148;13.738;2023-02-15T17:55:24;23.70;;;10.32;;
25249;SDS011;13201;51.148;13.738;2023-02-15T18:00:45;27.55;;;11.32;;
25249;SDS011;13201;51.148;13.738;2023-02-15T18:03:47;27.65;;;10.07;;
25249;SDS011;13201;51.148;13.738;2023-02-15T18:06:33;26.75;;;11.23;;
25249;SDS011;13201;51.148;13.738;2023-02-15T18:09:20;25.20;;;10.50;;
25249;SDS011;13201;51.148;13.738;2023-02-15T18:12:27;26.30;;;10.50;;
25249;SDS011;13201;51.148;13.738;2023-02-15T18:14:56;25.17;;;10.95;;
25249;SDS011;13201;51.148;13.738;2023-02-15T18:17:33;29.55;;;11.40;;
25249;SDS011;13201;51.148;13.738;2023-02-15T18:22:52;24.10;;;10.25;;
25249;SDS011;13201;51.148;13.738;2023-02-15T18:25:19;27.60;;;11.80;;
25249;SDS011;13201;51.148;13.738;2023-02-15T18:27:46;27.65;;;11.60;;
25249;SDS011;13201;51.148;13.738;2023-02-15T18:30:17;27.42;;;10.68;;
25249;SDS011;13201;51.148;13.738;2023-02-15T18:32:44;26.35;;;11.27;;
25249;SDS011;13201;51.148;13.738;2023-02-15T18:35:15;27.35;;;11.30;;
25249;SDS011;13201;51.148;13.738;2023-02-15T18:37:43;30.08;;;11.90;;
25249;SDS011;13201;51.148;13.738;2023-02-15T18:40:19;30.77;;;10.85;;
25249;SDS011;13201;51.148;13.738;2023-02-15T18:42:46;31.10;;;12.02;;
25249;SDS011;13201;51.148;13.738;2023-02-15T18:45:15;27.98;;;11.88;;